createdAt,value
2018-06-30T00:00:17.591Z,14.70
2018-06-30T00:01:46.178Z,14.71
2018-06-30T00:03:12.408Z,14.70
2018-06-30T00:04:39.688Z,14.71
2018-06-30T00:06:08.055Z,14.71
2018-06-30T00:07:34.111Z,14.70
2018-06-30T00:09:02.530Z,14.69
2018-06-30T00:10:29.066Z,14.68
2018-06-30T00:11:57.376Z,14.66
2018-06-30T00:13:23.699Z,14.65
2018-06-30T00:14:51.050Z,14.65
2018-06-30T00:16:18.360Z,14.63
2018-06-30T00:17:45.757Z,14.61
2018-06-30T00:19:13.160Z,14.58
2018-06-30T00:20:40.292Z,14.56
2018-06-30T00:22:07.552Z,14.55
2018-06-30T00:23:35.868Z,14.55
2018-06-30T00:25:02.115Z,14.53
2018-06-30T00:26:29.415Z,14.50
2018-06-30T00:27:56.761Z,14.46
2018-06-30T00:29:24.049Z,14.43
2018-06-30T00:30:51.228Z,14.42
2018-06-30T00:32:19.747Z,14.40
2018-06-30T00:33:46.109Z,14.32
2018-06-30T00:35:14.592Z,14.23
2018-06-30T00:36:40.892Z,14.15
2018-06-30T00:38:08.096Z,14.09
2018-06-30T00:39:35.331Z,14.02
2018-06-30T00:41:02.887Z,14.01
2018-06-30T00:42:30.221Z,14.02
2018-06-30T00:43:57.716Z,14.00
2018-06-30T00:45:26.043Z,13.95
2018-06-30T00:46:52.174Z,13.94
2018-06-30T00:48:19.492Z,13.92
2018-06-30T00:49:46.713Z,13.91
2018-06-30T00:51:14.136Z,13.91
2018-06-30T00:52:41.718Z,13.87
2018-06-30T00:54:09.117Z,13.82
2018-06-30T00:55:37.664Z,13.81
2018-06-30T00:57:03.915Z,13.82
2018-06-30T00:58:31.393Z,13.81
2018-06-30T00:59:58.421Z,13.83
2018-06-30T01:01:25.742Z,13.86
2018-06-30T01:02:53.922Z,13.88
2018-06-30T01:04:21.156Z,13.91
2018-06-30T01:05:48.591Z,13.92
2018-06-30T01:07:15.031Z,13.93
2018-06-30T01:08:43.180Z,13.93
2018-06-30T01:10:09.445Z,13.94
2018-06-30T01:11:37.795Z,13.94
2018-06-30T01:13:03.975Z,13.95
2018-06-30T01:14:31.266Z,13.96
2018-06-30T01:15:58.526Z,13.95
2018-06-30T01:17:25.853Z,13.96
2018-06-30T01:18:53.100Z,13.97
2018-06-30T01:20:21.341Z,13.98
2018-06-30T01:21:48.924Z,13.96
2018-06-30T01:23:16.032Z,13.96
2018-06-30T01:24:42.248Z,13.92
2018-06-30T01:26:10.841Z,13.88
2018-06-30T01:27:37.303Z,13.86
2018-06-30T01:29:04.725Z,13.87
2018-06-30T01:30:33.144Z,13.87
2018-06-30T01:32:00.531Z,13.89
2018-06-30T01:33:27.799Z,13.90
2018-06-30T01:34:54.095Z,13.90
2018-06-30T01:36:21.704Z,13.88
2018-06-30T01:37:50.162Z,13.88
2018-06-30T01:39:17.726Z,13.86
2018-06-30T01:40:45.247Z,13.85
2018-06-30T01:42:12.700Z,13.82
2018-06-30T01:43:39.119Z,13.78
2018-06-30T01:45:06.296Z,13.76
2018-06-30T01:46:33.661Z,13.74
2018-06-30T01:48:03.974Z,13.77
2018-06-30T01:49:29.349Z,13.79
2018-06-30T01:50:55.782Z,13.80
2018-06-30T01:52:22.868Z,13.82
2018-06-30T01:53:51.446Z,13.84
2018-06-30T01:55:18.603Z,13.89
2018-06-30T01:56:44.816Z,13.88
2018-06-30T01:58:12.134Z,13.86
2018-06-30T01:59:39.335Z,13.83
2018-06-30T02:01:07.929Z,13.80
2018-06-30T02:02:34.315Z,13.77
2018-06-30T02:04:01.686Z,13.75
2018-06-30T02:05:29.212Z,13.74
2018-06-30T02:06:57.497Z,13.77
2018-06-30T02:08:23.624Z,13.77
2018-06-30T02:09:51.307Z,13.81
2018-06-30T02:11:19.668Z,13.86
2018-06-30T02:12:45.843Z,13.91
2018-06-30T02:14:13.212Z,13.95
2018-06-30T02:15:40.705Z,13.98
2018-06-30T02:17:07.888Z,14.02
2018-06-30T02:18:36.170Z,14.06
2018-06-30T02:20:03.390Z,14.07
2018-06-30T02:21:30.945Z,14.08
2018-06-30T02:22:57.066Z,14.07
2018-06-30T02:24:24.240Z,14.07
2018-06-30T02:25:51.620Z,14.08
2018-06-30T02:27:18.991Z,14.10
2018-06-30T02:28:46.443Z,14.10
2018-06-30T02:30:13.904Z,14.11
2018-06-30T02:31:41.286Z,14.11
2018-06-30T02:33:08.936Z,14.09
2018-06-30T02:34:36.097Z,14.06
2018-06-30T02:36:04.627Z,14.04
2018-06-30T02:37:30.909Z,14.03
2018-06-30T02:38:58.440Z,14.02
2018-06-30T02:40:25.368Z,14.01
2018-06-30T02:41:53.911Z,14.01
2018-06-30T02:43:20.325Z,14.01
2018-06-30T02:44:47.694Z,14.02
2018-06-30T02:46:15.108Z,14.02
2018-06-30T02:47:42.358Z,14.01
2018-06-30T02:49:09.856Z,14.03
2018-06-30T02:50:37.121Z,14.05
2018-06-30T02:52:05.304Z,14.10
2018-06-30T02:53:31.813Z,14.13
2018-06-30T02:54:59.130Z,14.17
2018-06-30T02:56:26.476Z,14.19
2018-06-30T02:57:53.683Z,14.21
2018-06-30T02:59:21.362Z,14.20
2018-06-30T03:00:48.694Z,14.20
2018-06-30T03:02:16.132Z,14.22
2018-06-30T03:03:44.260Z,14.26
2018-06-30T03:05:10.739Z,14.29
2018-06-30T03:06:39.176Z,14.34
2018-06-30T03:08:05.577Z,14.38
2018-06-30T03:09:32.978Z,14.42
2018-06-30T03:11:00.194Z,14.45
2018-06-30T03:12:27.711Z,14.46
2018-06-30T03:13:55.811Z,14.47
2018-06-30T03:15:22.211Z,14.47
2018-06-30T03:16:49.747Z,14.49
2018-06-30T03:18:17.073Z,14.50
2018-06-30T03:19:44.438Z,14.50
2018-06-30T03:21:13.006Z,14.52
2018-06-30T03:22:39.197Z,14.55
2018-06-30T03:24:06.272Z,14.58
2018-06-30T03:25:33.604Z,14.59
2018-06-30T03:27:02.046Z,14.59
2018-06-30T03:28:28.198Z,14.60
2018-06-30T03:29:55.390Z,14.61
2018-06-30T03:31:23.594Z,14.65
2018-06-30T03:32:50.981Z,14.67
2018-06-30T03:34:17.025Z,14.72
2018-06-30T03:35:45.534Z,14.75
2018-06-30T03:37:11.865Z,14.77
2018-06-30T03:38:39.052Z,14.80
2018-06-30T03:40:06.461Z,14.82
2018-06-30T03:41:34.694Z,14.86
2018-06-30T03:43:01.223Z,14.85
2018-06-30T03:44:28.687Z,14.85
2018-06-30T03:45:56.175Z,14.86
2018-06-30T03:47:23.683Z,14.86
2018-06-30T03:48:51.858Z,14.89
2018-06-30T03:50:18.110Z,14.90
2018-06-30T03:51:45.270Z,14.91
2018-06-30T03:53:13.781Z,15.03
2018-06-30T03:54:39.977Z,15.26
2018-06-30T03:56:07.176Z,15.70
2018-06-30T03:57:34.599Z,16.29
2018-06-30T03:59:02.048Z,16.91
2018-06-30T04:00:29.848Z,17.41
2018-06-30T04:01:57.347Z,17.77
2018-06-30T04:03:24.787Z,18.07
2018-06-30T04:04:53.463Z,18.27
2018-06-30T04:06:19.882Z,18.33
2018-06-30T04:07:47.585Z,18.29
2018-06-30T04:09:15.958Z,18.15
2018-06-30T04:10:42.356Z,17.95
2018-06-30T04:12:10.760Z,17.71
2018-06-30T04:13:37.306Z,17.46
2018-06-30T04:15:04.884Z,17.25
2018-06-30T04:16:33.372Z,17.08
2018-06-30T04:17:59.864Z,16.91
2018-06-30T04:19:28.270Z,16.71
2018-06-30T04:20:54.588Z,16.56
2018-06-30T04:22:22.105Z,16.42
2018-06-30T04:23:49.657Z,16.29
2018-06-30T04:25:18.113Z,16.16
2018-06-30T04:26:45.472Z,16.08
2018-06-30T04:28:11.752Z,15.98
2018-06-30T04:29:39.239Z,15.90
2018-06-30T04:31:06.642Z,15.83
2018-06-30T04:32:33.900Z,15.76
2018-06-30T04:34:01.374Z,15.71
2018-06-30T04:35:28.800Z,15.66
2018-06-30T04:36:55.957Z,15.61
2018-06-30T04:38:24.366Z,15.56
2018-06-30T04:39:51.808Z,15.52
2018-06-30T04:41:19.253Z,15.53
2018-06-30T04:42:45.160Z,15.55
2018-06-30T04:44:12.550Z,15.57
2018-06-30T04:45:39.868Z,15.61
2018-06-30T04:47:07.312Z,15.64
2018-06-30T04:48:35.759Z,15.66
2018-06-30T04:50:03.267Z,15.67
2018-06-30T04:51:29.558Z,15.72
2018-06-30T04:52:57.920Z,15.77
2018-06-30T04:54:24.200Z,15.87
2018-06-30T04:55:51.493Z,15.97
2018-06-30T04:57:20.076Z,16.02
2018-06-30T04:58:46.463Z,16.09
2018-06-30T05:00:13.400Z,16.22
2018-06-30T05:01:40.776Z,16.29
2018-06-30T05:03:08.978Z,16.33
2018-06-30T05:04:36.231Z,16.38
2018-06-30T05:06:02.594Z,16.41
2018-06-30T05:07:29.836Z,16.54
2018-06-30T05:08:57.335Z,16.71
2018-06-30T05:10:25.693Z,16.85
2018-06-30T05:11:52.957Z,17.02
2018-06-30T05:13:19.351Z,17.18
2018-06-30T05:14:47.685Z,17.32
2018-06-30T05:16:14.033Z,17.43
2018-06-30T05:17:41.235Z,17.54
2018-06-30T05:19:09.750Z,17.66
2018-06-30T05:20:36.175Z,17.73
2018-06-30T05:22:03.900Z,17.81
2018-06-30T05:23:31.498Z,17.85
2018-06-30T05:24:59.438Z,17.89
2018-06-30T05:26:25.854Z,17.90
2018-06-30T05:27:54.257Z,17.92
2018-06-30T05:29:21.656Z,17.91
2018-06-30T05:30:48.005Z,17.88
2018-06-30T05:32:15.537Z,17.91
2018-06-30T05:33:44.122Z,17.96
2018-06-30T05:35:11.333Z,18.04
2018-06-30T05:36:37.886Z,18.17
2018-06-30T05:38:05.397Z,18.34
2018-06-30T05:39:33.933Z,18.57
2018-06-30T05:41:00.280Z,18.97
2018-06-30T05:42:27.828Z,19.54
2018-06-30T05:43:55.399Z,20.14
2018-06-30T05:45:23.169Z,20.64
2018-06-30T05:46:51.710Z,21.02
2018-06-30T05:48:18.418Z,21.55
2018-06-30T05:49:46.085Z,21.92
2018-06-30T05:51:13.732Z,22.33
2018-06-30T06:14:10.355Z,22.06
2018-06-30T06:15:37.468Z,22.12
2018-06-30T06:17:04.935Z,22.25
2018-06-30T06:18:32.560Z,22.40
2018-06-30T06:19:59.870Z,22.44
2018-06-30T06:21:27.476Z,22.43
2018-06-30T06:22:54.943Z,22.01
2018-06-30T06:24:23.586Z,21.50
2018-06-30T06:25:50.045Z,21.36
2018-06-30T06:27:17.485Z,21.19
2018-06-30T06:28:45.129Z,20.99
2018-06-30T06:30:13.808Z,20.77
2018-06-30T06:31:40.103Z,20.49
2018-06-30T06:33:08.556Z,20.24
2018-06-30T06:34:36.238Z,20.23
2018-06-30T06:36:03.752Z,20.20
2018-06-30T06:37:30.319Z,20.28
2018-06-30T06:38:57.754Z,20.23
2018-06-30T06:40:24.916Z,20.19
2018-06-30T06:41:52.371Z,20.25
2018-06-30T06:43:20.052Z,20.33
2018-06-30T06:44:47.343Z,20.46
2018-06-30T06:46:14.872Z,20.57
2018-06-30T06:47:42.416Z,20.84
2018-06-30T06:49:09.931Z,21.48
2018-06-30T06:50:37.626Z,22.04
2018-06-30T06:52:05.038Z,22.28
2018-06-30T06:53:32.800Z,22.38
2018-06-30T06:55:00.056Z,22.63
2018-06-30T06:56:27.791Z,23.06
2018-06-30T06:57:55.234Z,23.47
2018-06-30T06:59:23.024Z,23.76
2018-06-30T07:00:51.285Z,24.09
2018-06-30T07:02:18.898Z,24.20
2018-06-30T07:03:45.677Z,24.22
2018-06-30T07:05:13.716Z,24.09
2018-06-30T07:06:40.188Z,23.94
2018-06-30T07:08:08.882Z,23.88
2018-06-30T07:09:35.477Z,23.71
2018-06-30T07:11:04.149Z,23.46
2018-06-30T07:12:30.661Z,23.26
2018-06-30T07:13:58.172Z,22.98
2018-06-30T07:15:25.785Z,22.86
2018-06-30T07:16:53.453Z,22.98
2018-06-30T07:18:20.463Z,23.14
2018-06-30T07:19:47.833Z,23.40
2018-06-30T07:21:15.394Z,23.51
2018-06-30T07:22:44.045Z,23.60
2018-06-30T07:24:10.494Z,23.63
2018-06-30T07:25:37.941Z,23.58
2018-06-30T07:27:05.828Z,23.54
2018-06-30T07:28:33.206Z,23.55
2018-06-30T07:30:00.839Z,23.51
2018-06-30T07:31:28.070Z,23.59
2018-06-30T07:32:55.701Z,23.42
2018-06-30T07:34:23.352Z,23.27
2018-06-30T07:35:51.004Z,23.12
2018-06-30T07:37:18.311Z,22.87
2018-06-30T07:38:45.966Z,22.50
2018-06-30T07:40:13.331Z,22.25
2018-06-30T07:41:42.117Z,22.02
2018-06-30T07:43:09.690Z,22.04
2018-06-30T07:44:37.103Z,22.11
2018-06-30T10:10:48.287Z,22.81
2018-06-30T10:12:15.595Z,22.62
2018-06-30T10:13:43.218Z,22.54
2018-06-30T10:15:11.782Z,22.57
2018-06-30T10:16:38.382Z,22.78
2018-06-30T10:18:06.949Z,22.87
2018-06-30T10:19:33.517Z,22.91
2018-06-30T10:21:00.827Z,23.05
2018-06-30T10:22:27.927Z,23.11
2018-06-30T10:23:55.615Z,23.08
2018-06-30T10:25:23.132Z,23.00
2018-06-30T10:26:50.609Z,22.95
2018-06-30T10:28:18.147Z,22.88
2018-06-30T10:29:45.488Z,22.77
2018-06-30T10:31:13.015Z,22.61
2018-06-30T10:32:40.377Z,22.45
2018-06-30T10:34:07.754Z,22.30
2018-06-30T10:35:35.140Z,22.22
2018-06-30T10:37:03.671Z,22.16
2018-06-30T10:38:29.968Z,22.09
2018-06-30T10:39:57.657Z,22.03
2018-06-30T10:41:26.261Z,22.00
2018-06-30T10:42:52.759Z,21.96
2018-06-30T10:44:21.327Z,21.93
2018-06-30T10:45:47.615Z,21.87
2018-06-30T10:47:15.248Z,21.80
2018-06-30T10:48:42.612Z,21.81
2018-06-30T10:50:10.217Z,21.96
2018-06-30T10:51:37.611Z,22.19
2018-06-30T10:53:05.024Z,22.44
2018-06-30T10:54:32.557Z,22.68
2018-06-30T10:56:00.036Z,22.85
2018-06-30T10:57:27.661Z,23.02
2018-06-30T10:58:55.158Z,23.29
2018-06-30T11:00:22.335Z,23.58
2018-06-30T11:01:49.683Z,23.61
2018-06-30T11:03:17.415Z,23.63
2018-06-30T11:04:44.998Z,23.72
2018-06-30T11:06:12.297Z,23.70
2018-06-30T11:07:39.709Z,23.57
2018-06-30T11:09:08.148Z,23.67
2018-06-30T11:10:34.636Z,23.91
2018-06-30T11:12:02.162Z,24.11
2018-06-30T11:13:30.548Z,24.16
2018-06-30T11:14:57.137Z,24.36
2018-06-30T11:16:24.717Z,24.48
2018-06-30T11:17:52.156Z,24.63
2018-06-30T11:19:19.789Z,24.85
2018-06-30T11:20:48.459Z,24.92
2018-06-30T11:22:15.025Z,25.05
2018-06-30T11:23:42.840Z,25.09
2018-06-30T11:25:10.366Z,24.94
2018-06-30T11:26:38.023Z,24.74
2018-06-30T11:28:06.528Z,24.60
2018-06-30T11:29:32.877Z,24.33
2018-06-30T11:31:01.352Z,23.97
2018-06-30T11:32:28.954Z,23.75
2018-06-30T11:33:56.462Z,23.52
2018-06-30T11:35:23.123Z,23.29
2018-06-30T11:36:50.731Z,23.13
2018-06-30T11:38:18.108Z,23.08
2018-06-30T11:39:46.868Z,23.11
2018-06-30T11:41:14.477Z,23.31
2018-06-30T11:42:41.106Z,23.39
2018-06-30T11:44:08.594Z,23.43
2018-06-30T11:45:36.114Z,23.42
2018-06-30T11:47:03.751Z,23.62
2018-06-30T11:48:31.117Z,23.85
2018-06-30T11:49:58.576Z,23.73
2018-06-30T11:51:25.936Z,23.65
2018-06-30T11:52:53.454Z,23.55
2018-06-30T11:54:21.943Z,23.56
2018-06-30T11:55:48.612Z,23.90
2018-06-30T11:57:15.985Z,24.36
2018-06-30T11:58:43.743Z,24.72
2018-06-30T12:00:11.278Z,25.02
2018-06-30T12:01:40.089Z,25.22
2018-06-30T12:03:06.364Z,25.38
2018-06-30T12:04:34.016Z,25.74
2018-06-30T12:06:01.556Z,25.75
2018-06-30T12:07:30.143Z,25.59
2018-06-30T12:08:56.759Z,25.34
2018-06-30T12:10:24.040Z,25.17
2018-06-30T12:11:51.755Z,24.97
2018-06-30T12:13:19.310Z,24.76
2018-06-30T12:14:46.955Z,24.50
2018-06-30T12:16:14.511Z,24.27
2018-06-30T12:17:42.184Z,24.04
2018-06-30T12:19:09.804Z,23.90
2018-06-30T12:20:38.476Z,23.86
2018-06-30T12:22:05.106Z,23.67
2018-06-30T12:23:32.851Z,23.60
2018-06-30T12:25:00.386Z,23.52
2018-06-30T12:26:28.024Z,23.55
2018-06-30T12:27:55.611Z,23.96
2018-06-30T12:29:23.072Z,24.48
2018-06-30T12:30:51.529Z,24.99
2018-06-30T12:32:18.238Z,25.46
2018-06-30T12:33:46.672Z,25.72
2018-06-30T12:35:13.155Z,25.56
2018-06-30T12:36:40.818Z,25.23
2018-06-30T12:38:08.291Z,24.92
2018-06-30T12:39:35.824Z,24.61
2018-06-30T12:41:03.269Z,24.36
2018-06-30T12:42:30.801Z,24.01
2018-06-30T12:43:58.208Z,23.77
2018-06-30T12:45:25.979Z,23.59
2018-06-30T12:46:54.586Z,23.45
2018-06-30T12:48:21.014Z,23.30
2018-06-30T12:49:48.507Z,23.12
2018-06-30T12:51:16.061Z,22.98
2018-06-30T12:52:43.429Z,22.96
2018-06-30T12:54:10.918Z,23.16
2018-06-30T12:55:38.362Z,23.42
2018-06-30T12:57:05.626Z,23.62
2018-06-30T12:58:36.130Z,23.68
2018-06-30T13:00:00.605Z,23.60
2018-06-30T13:01:28.131Z,23.55
2018-06-30T13:02:55.677Z,23.55
2018-06-30T13:04:23.358Z,23.51
2018-06-30T13:05:50.931Z,23.46
2018-06-30T13:07:18.516Z,23.47
2018-06-30T13:08:46.025Z,23.52
2018-06-30T13:10:14.511Z,23.73
2018-06-30T13:11:42.160Z,23.99
2018-06-30T13:13:09.517Z,24.22
2018-06-30T13:14:35.974Z,24.37
2018-06-30T13:16:03.267Z,24.31
2018-06-30T13:17:30.951Z,24.32
2018-06-30T13:18:58.637Z,24.35
2018-06-30T13:20:27.212Z,24.44
2018-06-30T13:21:53.345Z,24.56
2018-06-30T13:23:21.044Z,24.62
2018-06-30T13:24:49.825Z,24.62
2018-06-30T13:26:16.393Z,24.54
2018-06-30T13:27:44.932Z,24.43
2018-06-30T13:29:11.489Z,24.35
2018-06-30T13:30:38.923Z,24.28
2018-06-30T13:32:06.352Z,24.31
2018-06-30T13:33:33.938Z,24.20
2018-06-30T13:35:01.456Z,24.16
2018-06-30T13:36:30.107Z,24.17
2018-06-30T13:37:57.730Z,24.09
2018-06-30T13:39:25.185Z,24.12
2018-06-30T13:40:52.833Z,24.16
2018-06-30T13:42:19.304Z,24.14
2018-06-30T13:43:47.899Z,24.14
2018-06-30T13:45:14.429Z,24.08
2018-06-30T13:46:42.077Z,23.91
2018-06-30T13:48:09.600Z,23.72
2018-06-30T13:49:37.225Z,23.61
2018-06-30T13:51:04.691Z,23.51
2018-06-30T13:52:32.025Z,23.43
2018-06-30T13:53:59.725Z,23.38
2018-06-30T13:55:28.270Z,23.35
2018-06-30T13:56:55.729Z,23.33
2018-06-30T13:58:22.369Z,23.29
2018-06-30T13:59:49.930Z,23.29
2018-06-30T14:01:17.584Z,23.29
2018-06-30T14:02:46.085Z,23.24
2018-06-30T14:04:12.586Z,23.18
2018-06-30T14:05:40.923Z,23.16
2018-06-30T14:07:08.452Z,23.19
2018-06-30T14:08:34.840Z,23.23
2018-06-30T14:10:03.420Z,23.25
2018-06-30T14:11:30.040Z,23.28
2018-06-30T14:12:57.499Z,23.31
2018-06-30T14:14:25.262Z,23.32
2018-06-30T14:15:52.835Z,23.27
2018-06-30T14:17:20.554Z,23.24
2018-06-30T14:33:10.968Z,23.24
2018-06-30T14:34:35.295Z,23.27
2018-06-30T14:36:02.975Z,23.30
2018-06-30T14:37:31.477Z,23.31
2018-06-30T14:38:59.038Z,23.28
2018-06-30T14:40:25.662Z,23.23
2018-06-30T14:41:54.106Z,23.17
2018-06-30T14:43:20.618Z,23.12
2018-06-30T14:44:49.234Z,23.05
2018-06-30T14:46:15.744Z,22.98
2018-06-30T14:47:43.181Z,22.92
2018-06-30T14:49:10.676Z,22.86
2018-06-30T14:50:39.177Z,22.83
2018-06-30T14:52:06.375Z,22.79
2018-06-30T14:53:32.809Z,22.78
2018-06-30T14:55:00.320Z,22.78
2018-06-30T14:56:27.868Z,22.80
2018-06-30T14:57:56.477Z,22.78
2018-06-30T14:59:23.050Z,22.73
2018-06-30T15:00:50.525Z,22.73
2018-06-30T15:02:19.130Z,22.68
2018-06-30T15:03:46.445Z,22.63
2018-06-30T15:05:13.884Z,22.58
2018-06-30T15:06:40.155Z,22.50
2018-06-30T15:08:07.883Z,22.42
2018-06-30T15:09:36.447Z,22.37
2018-06-30T15:11:03.012Z,22.35
2018-06-30T15:12:30.496Z,22.40
2018-06-30T15:13:59.035Z,22.46
2018-06-30T15:15:26.378Z,22.55
2018-06-30T15:16:53.817Z,22.63
2018-06-30T15:18:20.204Z,22.71
2018-06-30T15:19:48.865Z,22.78
2018-06-30T15:21:16.431Z,22.79
2018-06-30T15:22:44.049Z,22.75
2018-06-30T15:24:10.350Z,22.74
2018-06-30T15:25:37.912Z,22.77
2018-06-30T15:27:05.534Z,22.81
2018-06-30T15:28:32.964Z,22.84
2018-06-30T15:30:01.499Z,22.85
2018-06-30T15:31:29.041Z,22.86
2018-06-30T15:32:55.576Z,22.90
2018-06-30T15:34:23.125Z,22.91
2018-06-30T15:35:50.576Z,22.94
2018-06-30T15:37:19.034Z,22.95
2018-06-30T15:38:45.531Z,22.91
2018-06-30T15:40:13.143Z,22.91
2018-06-30T15:41:40.844Z,22.90
2018-06-30T15:43:08.509Z,22.90
2018-06-30T15:44:36.778Z,22.84
2018-06-30T15:46:03.516Z,22.74
2018-06-30T15:47:31.915Z,22.63
2018-06-30T15:48:59.504Z,22.57
2018-06-30T15:50:26.067Z,22.49
2018-06-30T15:51:54.413Z,22.43
2018-06-30T15:53:22.063Z,22.39
2018-06-30T15:54:54.636Z,22.34
2018-06-30T15:56:15.845Z,22.30
2018-06-30T15:57:44.551Z,22.24
2018-06-30T15:59:11.264Z,22.19
2018-06-30T16:00:38.775Z,22.12
2018-06-30T16:02:07.441Z,22.08
2018-06-30T16:03:33.912Z,22.03
2018-06-30T16:05:01.122Z,21.98
2018-06-30T16:06:29.886Z,22.00
2018-06-30T16:07:56.311Z,22.02
2018-06-30T16:09:23.757Z,22.03
2018-06-30T16:10:51.148Z,22.08
2018-06-30T16:12:18.585Z,22.11
2018-06-30T16:13:46.203Z,22.15
2018-06-30T16:15:14.747Z,22.22
2018-06-30T16:16:42.190Z,22.29
2018-06-30T16:18:09.865Z,22.32
2018-06-30T16:19:36.476Z,22.36
2018-06-30T16:21:05.066Z,22.37
2018-06-30T16:22:32.674Z,22.40
2018-06-30T16:23:59.101Z,22.42
2018-06-30T16:25:26.745Z,22.42
2018-06-30T16:26:54.108Z,22.42
2018-06-30T16:28:21.615Z,22.45
2018-06-30T16:29:49.171Z,22.47
2018-06-30T16:31:16.717Z,22.49
2018-06-30T16:32:44.421Z,22.51
2018-06-30T16:34:11.930Z,22.56
2018-06-30T16:35:39.548Z,22.58
2018-06-30T16:37:07.043Z,22.66
2018-06-30T16:38:35.642Z,22.70
2018-06-30T16:40:02.230Z,22.76
2018-06-30T16:41:29.801Z,22.80
2018-06-30T16:42:57.313Z,22.78
2018-06-30T16:44:24.926Z,22.79
2018-06-30T16:45:52.465Z,22.81
2018-06-30T16:47:21.115Z,22.77
2018-06-30T16:48:47.648Z,22.73
2018-06-30T16:50:15.217Z,22.71
2018-06-30T16:51:42.910Z,22.72
2018-06-30T16:53:10.415Z,22.67
2018-06-30T16:54:37.851Z,22.62
2018-06-30T16:56:05.572Z,22.56
2018-06-30T16:57:33.123Z,22.51
2018-06-30T16:59:00.608Z,22.46
2018-06-30T17:00:28.946Z,22.42
2018-06-30T17:01:55.383Z,22.41
2018-06-30T17:03:22.949Z,22.35
2018-06-30T17:04:50.407Z,22.30
2018-06-30T17:06:18.040Z,22.29
2018-06-30T17:07:46.551Z,22.27
2018-06-30T17:09:14.332Z,22.19
2018-06-30T17:10:41.940Z,22.15
2018-06-30T17:12:08.530Z,22.09
2018-06-30T17:13:36.170Z,22.02
2018-06-30T17:15:03.863Z,21.94
2018-06-30T17:16:32.292Z,21.93
2018-06-30T17:17:59.771Z,21.93
2018-06-30T17:19:25.923Z,21.93
2018-06-30T17:20:53.487Z,21.91
2018-06-30T17:22:20.819Z,21.91
2018-06-30T17:23:48.508Z,21.92
2018-06-30T17:25:16.313Z,21.93
2018-06-30T17:26:44.036Z,21.94
2018-06-30T17:28:11.567Z,21.92
2018-06-30T17:29:38.900Z,21.91
2018-06-30T17:31:06.640Z,21.90
2018-06-30T17:32:35.234Z,21.89
2018-06-30T17:34:01.724Z,21.85
2018-06-30T17:35:29.278Z,21.85
2018-06-30T17:36:56.662Z,21.80
2018-06-30T17:38:24.295Z,21.73
2018-06-30T17:39:52.624Z,21.69
2018-06-30T17:41:19.121Z,21.64
2018-06-30T17:42:47.616Z,21.55
2018-06-30T17:44:14.965Z,21.48
2018-06-30T17:45:42.480Z,21.40
2018-06-30T17:47:08.864Z,21.35
2018-06-30T17:48:36.442Z,21.32
2018-06-30T17:50:04.086Z,21.31
2018-06-30T17:51:31.609Z,21.26
2018-06-30T17:52:59.144Z,21.21
2018-06-30T17:54:26.694Z,21.16
2018-06-30T17:55:54.058Z,21.09
2018-06-30T17:57:21.583Z,21.04
2018-06-30T17:58:49.190Z,20.98
2018-06-30T18:00:16.552Z,20.94
2018-06-30T18:01:44.177Z,20.91
2018-06-30T18:03:11.766Z,20.89
2018-06-30T18:04:40.165Z,20.87
2018-06-30T18:06:06.651Z,20.80
2018-06-30T18:07:34.852Z,20.74
2018-06-30T18:09:01.349Z,20.68
2018-06-30T18:10:29.974Z,20.63
2018-06-30T18:11:56.262Z,20.59
2018-06-30T18:13:23.743Z,20.59
2018-06-30T18:14:51.251Z,20.57
2018-06-30T18:16:18.641Z,20.57
2018-06-30T18:17:46.125Z,20.55
2018-06-30T18:19:13.776Z,20.53
2018-06-30T18:20:41.414Z,20.51
2018-06-30T18:22:08.970Z,20.50
2018-06-30T18:23:36.471Z,20.50
2018-06-30T18:25:03.942Z,20.47
2018-06-30T18:26:31.416Z,20.45
2018-06-30T18:27:59.962Z,20.43
2018-06-30T18:29:26.484Z,20.39
2018-06-30T18:30:54.866Z,20.38
2018-06-30T18:32:21.184Z,20.35
2018-06-30T18:33:48.803Z,20.34
2018-06-30T18:35:16.437Z,20.31
2018-06-30T18:36:44.961Z,20.25
2018-06-30T18:38:11.293Z,20.20
2018-06-30T18:39:38.674Z,20.15
2018-06-30T18:41:06.191Z,20.11
2018-06-30T18:42:33.553Z,20.06
2018-06-30T18:44:01.949Z,20.02
2018-06-30T18:45:29.410Z,19.99
2018-06-30T18:46:55.727Z,19.96
2018-06-30T18:48:24.267Z,19.92
2018-06-30T18:49:51.714Z,19.89
2018-06-30T18:51:18.193Z,19.85
2018-06-30T18:52:45.804Z,19.82
2018-06-30T18:54:14.273Z,19.79
2018-06-30T18:55:40.646Z,19.76
2018-06-30T18:57:08.217Z,19.71
2018-06-30T18:58:35.748Z,19.69
2018-06-30T19:00:03.154Z,19.66
2018-06-30T19:01:30.544Z,19.64
2018-06-30T19:02:59.126Z,19.62
2018-06-30T19:04:25.539Z,19.59
2018-06-30T19:05:54.088Z,19.54
2018-06-30T19:07:20.334Z,19.49
2018-06-30T19:08:49.039Z,19.43
2018-06-30T19:10:15.344Z,19.37
2018-06-30T19:11:42.807Z,19.32
2018-06-30T19:13:10.381Z,19.28
2018-06-30T19:14:38.019Z,19.22
2018-06-30T19:16:06.559Z,19.16
2018-06-30T19:17:33.038Z,19.11
2018-06-30T19:19:00.582Z,19.06
2018-06-30T19:20:28.068Z,19.01
2018-06-30T19:21:56.596Z,19.01
2018-06-30T19:23:24.063Z,18.97
2018-06-30T19:24:50.298Z,18.95
2018-06-30T19:26:18.919Z,18.94
2018-06-30T19:27:45.270Z,18.91
2018-06-30T19:29:13.798Z,18.89
2018-06-30T19:30:40.149Z,18.87
2018-06-30T19:32:08.731Z,18.84
2018-06-30T19:33:34.944Z,18.76
2018-06-30T19:35:02.623Z,18.71
2018-06-30T19:36:30.202Z,18.69
2018-06-30T19:37:57.520Z,18.64
2018-06-30T19:39:26.232Z,18.63
2018-06-30T19:40:53.564Z,18.60
2018-06-30T19:42:20.067Z,18.54
2018-06-30T19:43:47.489Z,18.47
2018-06-30T19:45:14.829Z,18.44
2018-06-30T19:46:43.453Z,18.38
2018-06-30T19:48:09.989Z,18.33
2018-06-30T19:49:37.333Z,18.28
2018-06-30T19:51:06.000Z,18.25
2018-06-30T19:52:32.347Z,18.21
2018-06-30T19:53:59.846Z,18.16
2018-06-30T19:55:27.210Z,18.11
2018-06-30T19:56:54.777Z,18.09
2018-06-30T19:58:23.189Z,18.06
2018-06-30T19:59:49.717Z,18.03
2018-06-30T20:01:17.978Z,17.98
2018-06-30T20:02:44.357Z,17.95
2018-06-30T20:04:12.858Z,17.92
2018-06-30T20:05:39.332Z,17.88
2018-06-30T20:07:07.965Z,17.84
2018-06-30T20:08:34.219Z,17.80
2018-06-30T20:10:01.472Z,17.77
2018-06-30T20:11:28.888Z,17.72
2018-06-30T20:12:56.255Z,17.66
2018-06-30T20:14:23.667Z,17.58
2018-06-30T20:15:51.201Z,17.49
2018-06-30T20:17:19.729Z,17.44
2018-06-30T20:18:47.272Z,17.43
2018-06-30T20:20:13.723Z,17.42
2018-06-30T20:21:41.158Z,17.40
2018-06-30T20:23:08.825Z,17.38
2018-06-30T20:24:36.089Z,17.34
2018-06-30T20:26:04.656Z,17.32
2018-06-30T20:27:30.852Z,17.28
2018-06-30T20:28:59.319Z,17.25
2018-06-30T20:30:25.851Z,17.19
2018-06-30T20:31:54.169Z,17.14
2018-06-30T20:33:20.521Z,17.09
2018-06-30T20:34:48.995Z,17.06
2018-06-30T20:36:16.678Z,17.01
2018-06-30T20:37:43.229Z,16.95
2018-06-30T20:39:11.782Z,16.89
2018-06-30T20:40:37.865Z,16.85
2018-06-30T20:42:06.322Z,16.81
2018-06-30T20:43:33.487Z,16.78
2018-06-30T20:45:01.167Z,16.72
2018-06-30T20:46:27.562Z,16.69
2018-06-30T20:47:55.039Z,16.65
2018-06-30T20:49:22.275Z,16.65
2018-06-30T20:50:49.655Z,16.64
2018-06-30T20:52:16.852Z,16.64
2018-06-30T20:53:44.276Z,16.64
2018-06-30T20:55:11.642Z,16.60
2018-06-30T20:56:39.079Z,16.60
2018-06-30T20:58:06.707Z,16.61
2018-06-30T20:59:35.144Z,16.63
2018-06-30T21:01:02.433Z,16.63
2018-06-30T21:02:28.709Z,16.56
2018-06-30T21:03:56.118Z,16.51
2018-06-30T21:05:23.462Z,16.45
2018-06-30T21:06:50.639Z,16.41
2018-06-30T21:08:19.325Z,16.36
2018-06-30T21:09:45.612Z,16.31
2018-06-30T21:11:12.873Z,16.27
2018-06-30T21:12:40.408Z,16.26
2018-06-30T21:14:07.775Z,16.26
2018-06-30T21:15:36.252Z,16.23
2018-06-30T21:17:03.600Z,16.17
2018-06-30T21:18:31.061Z,16.16
2018-06-30T21:19:57.267Z,16.16
2018-06-30T21:21:25.725Z,16.11
2018-06-30T21:24:20.619Z,16.07
2018-06-30T21:25:47.970Z,16.01
2018-06-30T21:27:14.379Z,15.99
2018-06-30T21:28:42.010Z,15.98
2018-06-30T21:30:09.429Z,15.98
2018-06-30T21:31:36.906Z,15.99
2018-06-30T21:33:05.391Z,15.95
2018-06-30T21:34:31.706Z,15.90
2018-06-30T21:35:59.187Z,15.87
2018-06-30T21:37:26.481Z,15.86
2018-06-30T21:38:54.967Z,15.83
2018-06-30T21:40:22.251Z,15.81
2018-06-30T21:41:49.793Z,15.80
2018-06-30T21:43:16.089Z,15.79
2018-06-30T21:44:43.680Z,15.79
2018-06-30T21:46:12.170Z,15.76
2018-06-30T21:47:39.607Z,15.72